createdAt,value
2019-05-18T03:00:57.269Z,6.08
2019-05-18T03:03:26.605Z,7.85
2019-05-18T03:05:55.930Z,7.42
2019-05-18T03:08:25.189Z,9.20
2019-05-18T03:10:54.532Z,8.08
2019-05-18T03:13:23.958Z,7.50
2019-05-18T03:15:53.241Z,10.28
2019-05-18T03:18:22.520Z,12.00
2019-05-18T03:20:51.793Z,10.03
2019-05-18T03:23:21.075Z,11.50
2019-05-18T03:25:50.604Z,11.95
2019-05-18T03:28:19.884Z,11.20
2019-05-18T03:30:49.421Z,10.93
2019-05-18T03:33:18.794Z,10.00
2019-05-18T03:35:48.044Z,10.75
2019-05-18T03:38:17.330Z,10.88
2019-05-18T03:40:46.591Z,9.70
2019-05-18T03:43:15.867Z,10.32
2019-05-18T03:45:45.139Z,9.75
2019-05-18T03:48:14.728Z,10.78
2019-05-18T03:50:44.069Z,11.50
2019-05-18T03:53:13.635Z,10.03
2019-05-18T03:55:42.900Z,9.30
2019-05-18T03:58:12.175Z,10.15
2019-05-18T04:00:41.455Z,9.55
2019-05-18T04:03:10.731Z,10.38
2019-05-18T04:05:40.009Z,9.58
2019-05-18T04:08:09.288Z,10.55
2019-05-18T04:10:38.563Z,10.35
2019-05-18T04:13:07.838Z,10.68
2019-05-18T04:15:37.111Z,11.50
2019-05-18T04:18:06.385Z,9.93
2019-05-18T04:20:35.677Z,10.98
2019-05-18T04:23:04.947Z,10.32
2019-05-18T04:25:34.220Z,11.15
2019-05-18T04:28:03.507Z,10.35
2019-05-18T04:30:33.065Z,11.08
2019-05-18T04:33:02.340Z,10.63
2019-05-18T04:35:31.871Z,11.60
2019-05-18T04:38:01.160Z,10.48
2019-05-18T04:40:30.421Z,11.08
2019-05-18T04:42:59.695Z,11.60
2019-05-18T04:45:29.283Z,11.28
2019-05-18T04:47:58.894Z,10.48
2019-05-18T04:50:28.502Z,10.43
2019-05-18T04:52:57.771Z,10.88
2019-05-18T04:55:27.307Z,9.43
2019-05-18T04:57:56.846Z,10.10
2019-05-18T05:00:26.433Z,10.82
2019-05-18T05:02:55.932Z,9.53
2019-05-18T05:05:25.213Z,10.30
2019-05-18T05:07:54.735Z,9.48
2019-05-18T05:10:24.007Z,10.15
2019-05-18T05:12:54.354Z,9.18
2019-05-18T05:15:23.626Z,10.25
2019-05-18T05:17:52.965Z,9.90
2019-05-18T05:20:22.474Z,8.95
2019-05-18T05:22:51.751Z,9.60
2019-05-18T05:25:21.292Z,9.23
2019-05-18T05:27:50.558Z,9.10
2019-05-18T05:30:20.092Z,9.00
2019-05-18T05:32:49.370Z,9.15
2019-05-18T05:35:19.099Z,8.60
2019-05-18T05:37:48.614Z,8.98
2019-05-18T05:40:17.949Z,9.00
2019-05-18T05:42:47.219Z,7.50
2019-05-18T05:45:16.655Z,8.58
2019-05-18T05:47:45.914Z,8.78
2019-05-18T05:50:15.720Z,8.00
2019-05-18T05:52:45.006Z,8.50
2019-05-18T05:55:14.610Z,8.55
2019-05-18T05:57:43.875Z,8.83
2019-05-18T06:00:13.591Z,8.25
2019-05-18T06:02:42.843Z,8.18
2019-05-18T06:05:12.454Z,8.40
2019-05-18T06:07:41.722Z,8.15
2019-05-18T06:10:11.531Z,8.60
2019-05-18T06:12:41.087Z,8.35
2019-05-18T06:15:11.698Z,8.33
2019-05-18T06:17:41.334Z,8.03
2019-05-18T06:20:11.342Z,6.92
2019-05-18T06:22:40.676Z,7.95
2019-05-18T06:25:10.324Z,7.37
2019-05-18T06:27:39.639Z,8.08
2019-05-18T06:30:09.739Z,7.97
2019-05-18T06:32:39.010Z,7.90
2019-05-18T06:35:08.450Z,7.33
2019-05-18T06:37:37.723Z,7.25
2019-05-18T06:40:08.027Z,6.85
2019-05-18T06:42:37.298Z,7.05
2019-05-18T06:45:09.384Z,7.42
2019-05-18T06:47:38.651Z,7.30
2019-05-18T06:50:12.460Z,6.20
2019-05-18T06:52:41.285Z,6.60
2019-05-18T06:55:10.686Z,6.83
2019-05-18T06:57:40.707Z,7.47
2019-05-18T07:00:13.063Z,7.00
2019-05-18T07:02:42.325Z,7.72
2019-05-18T07:05:11.989Z,7.75
2019-05-18T07:07:41.598Z,6.42
2019-05-18T07:10:11.805Z,7.55
2019-05-18T07:12:41.331Z,7.15
2019-05-18T07:15:11.133Z,7.55
2019-05-18T07:17:40.398Z,7.37
2019-05-18T07:20:10.707Z,6.50
2019-05-18T07:22:41.414Z,6.85
2019-05-18T07:25:11.420Z,7.12
2019-05-18T07:27:40.955Z,6.62
2019-05-18T07:30:10.746Z,6.33
2019-05-18T07:32:41.102Z,6.45
2019-05-18T07:35:12.276Z,6.20
2019-05-18T07:37:41.819Z,6.83
2019-05-18T07:40:11.423Z,6.00
2019-05-18T07:42:40.932Z,6.50
2019-05-18T07:45:10.738Z,6.10
2019-05-18T07:47:40.255Z,6.60
2019-05-18T07:50:10.158Z,6.05
2019-05-18T07:52:39.426Z,5.85
2019-05-18T07:55:09.902Z,6.30
2019-05-18T07:57:39.175Z,5.80
2019-05-18T08:00:08.707Z,5.58
2019-05-18T08:02:38.047Z,6.12
2019-05-18T08:05:08.048Z,5.80
2019-05-18T08:07:37.318Z,4.80
2019-05-18T08:10:33.472Z,5.30
2019-05-18T08:15:31.339Z,5.37
2019-05-18T08:18:00.612Z,5.00
2019-05-18T08:20:29.951Z,5.00
2019-05-18T08:22:59.226Z,5.10
2019-05-18T08:25:28.492Z,4.58
2019-05-18T08:27:57.819Z,4.97
2019-05-18T08:30:27.099Z,4.78
2019-05-18T08:32:56.363Z,4.50
2019-05-18T08:35:27.354Z,4.30
2019-05-18T08:37:56.821Z,4.92
2019-05-18T08:40:26.088Z,5.15
2019-05-18T08:42:55.356Z,4.87
2019-05-18T08:45:24.623Z,4.85
2019-05-18T08:47:53.962Z,4.40
2019-05-18T08:50:23.246Z,4.50
2019-05-18T08:52:52.603Z,4.30
2019-05-18T08:55:21.864Z,4.80
2019-05-18T08:57:51.133Z,4.50
2019-05-18T09:00:20.568Z,4.30
2019-05-18T09:02:50.128Z,4.05
2019-05-18T09:05:19.463Z,4.40
2019-05-18T09:07:48.718Z,3.92
2019-05-18T09:10:18.543Z,4.53
2019-05-18T09:12:47.819Z,4.55
2019-05-18T09:15:17.327Z,4.10
2019-05-18T09:17:46.589Z,4.15
2019-05-18T09:20:18.790Z,3.70
2019-05-18T09:22:48.095Z,3.83
2019-05-18T09:25:17.435Z,4.22
2019-05-18T09:27:46.694Z,4.15
2019-05-18T09:30:17.371Z,3.83
2019-05-18T09:32:46.868Z,3.80
2019-05-18T09:35:16.774Z,3.70
2019-05-18T09:37:46.044Z,3.70
2019-05-18T09:40:16.550Z,4.25
2019-05-18T09:42:46.125Z,3.25
2019-05-18T09:45:16.231Z,3.90
2019-05-18T09:47:45.761Z,3.50
2019-05-18T09:50:15.672Z,3.22
2019-05-18T09:52:46.232Z,3.52
2019-05-18T09:55:16.320Z,3.52
2019-05-18T09:57:45.595Z,3.37
2019-05-18T10:00:15.438Z,3.02
2019-05-18T10:02:44.777Z,3.20
2019-05-18T10:05:14.286Z,5.95
2019-05-18T10:07:43.952Z,3.62
2019-05-18T10:10:13.907Z,2.87
2019-05-18T10:12:43.258Z,2.98
2019-05-18T10:15:14.151Z,2.62
2019-05-18T10:17:43.410Z,2.33
2019-05-18T10:20:13.428Z,2.60
2019-05-18T10:22:55.498Z,2.10
2019-05-18T10:25:13.996Z,2.60
2019-05-18T10:27:43.326Z,2.90
2019-05-18T10:30:13.440Z,2.72
2019-05-18T10:32:42.702Z,3.05
2019-05-18T10:35:12.426Z,2.90
2019-05-18T10:37:41.676Z,2.67
2019-05-18T10:40:12.387Z,2.27
2019-05-18T10:42:41.677Z,2.10
2019-05-18T10:45:11.778Z,1.87
2019-05-18T10:47:41.387Z,2.77
2019-05-18T10:50:11.917Z,1.70
2019-05-18T10:52:41.197Z,2.30
2019-05-18T10:55:10.720Z,2.90
2019-05-18T10:57:40.159Z,2.42
2019-05-18T11:00:11.110Z,2.50
2019-05-18T11:02:40.710Z,2.95
2019-05-18T11:05:10.727Z,3.25
2019-05-18T11:07:39.993Z,3.10
2019-05-18T11:10:10.106Z,2.70
2019-05-18T11:12:39.534Z,3.08
2019-05-18T11:15:11.151Z,3.12
2019-05-18T11:17:40.411Z,2.60
2019-05-18T11:20:10.414Z,2.70
2019-05-18T11:22:40.750Z,2.15
2019-05-18T11:25:11.278Z,2.87
2019-05-18T11:27:40.544Z,2.35
2019-05-18T11:30:11.841Z,2.45
2019-05-18T11:32:41.111Z,2.40
2019-05-18T11:35:11.043Z,2.72
2019-05-18T11:37:40.623Z,2.22
2019-05-18T11:40:12.270Z,2.40
2019-05-18T11:42:41.640Z,2.60
2019-05-18T11:45:13.262Z,2.35
2019-05-18T11:47:42.536Z,2.55
2019-05-18T11:50:12.490Z,2.70
2019-05-18T11:52:41.776Z,2.30
2019-05-18T11:55:11.482Z,2.95
2019-05-18T11:57:40.751Z,2.75
2019-05-18T12:00:13.124Z,2.60
2019-05-18T12:02:42.760Z,2.60
2019-05-18T12:05:12.862Z,2.55
2019-05-18T12:07:42.133Z,2.33
2019-05-18T12:10:12.031Z,2.67
2019-05-18T12:12:41.313Z,2.85
2019-05-18T12:15:11.617Z,2.27
2019-05-18T12:17:41.100Z,2.40
2019-05-18T12:20:12.679Z,2.35
2019-05-18T12:22:42.196Z,2.12
2019-05-18T12:25:11.775Z,2.30
2019-05-18T12:27:41.041Z,3.00
2019-05-18T12:30:11.657Z,2.37
2019-05-18T12:32:41.692Z,2.42
2019-05-18T12:35:11.767Z,2.80
2019-05-18T12:37:41.106Z,2.52
2019-05-18T12:40:12.648Z,2.40
2019-05-18T12:42:41.963Z,2.47
2019-05-18T12:45:12.190Z,2.45
2019-05-18T12:47:41.463Z,2.62
2019-05-18T12:50:12.551Z,2.08
2019-05-18T12:52:42.158Z,2.15
2019-05-18T12:55:11.958Z,2.40
2019-05-18T12:57:41.233Z,2.50
2019-05-18T13:00:13.253Z,2.77
2019-05-18T13:02:42.691Z,2.95
2019-05-18T13:05:12.890Z,2.98
2019-05-18T13:07:42.171Z,2.47
2019-05-18T13:10:12.085Z,3.12
2019-05-18T13:12:41.533Z,2.75
2019-05-18T13:15:11.851Z,2.62
2019-05-18T13:17:41.183Z,2.12
2019-05-18T13:20:12.119Z,2.20
2019-05-18T13:22:41.415Z,2.20
2019-05-18T13:25:11.573Z,2.83
2019-05-18T13:27:41.339Z,2.70
2019-05-18T13:30:12.765Z,2.27
2019-05-18T13:32:42.031Z,2.40
2019-05-18T13:35:12.353Z,2.58
2019-05-18T13:37:41.613Z,2.50
2019-05-18T13:40:12.934Z,2.17
2019-05-18T13:42:42.259Z,1.85
2019-05-18T13:45:11.988Z,1.80
2019-05-18T13:47:41.250Z,1.70
2019-05-18T13:50:12.641Z,2.08
2019-05-18T13:52:41.902Z,1.90
2019-05-18T13:55:11.858Z,1.90
2019-05-18T13:57:41.134Z,2.00
2019-05-18T14:00:10.864Z,1.92
2019-05-18T14:02:40.124Z,2.02
2019-05-18T14:05:10.030Z,2.10
2019-05-18T14:07:39.588Z,1.70
2019-05-18T14:10:12.475Z,1.90
2019-05-18T14:12:40.599Z,1.90
2019-05-18T14:15:11.955Z,1.70
2019-05-18T14:17:41.229Z,1.77
2019-05-18T14:20:11.126Z,1.80
2019-05-18T14:22:40.434Z,1.90
2019-05-18T14:25:19.445Z,1.80
2019-05-18T14:27:42.302Z,1.82
2019-05-18T14:30:12.527Z,1.95
2019-05-18T14:32:41.796Z,1.80
2019-05-18T14:35:11.330Z,1.92
2019-05-18T14:37:41.274Z,1.70
2019-05-18T14:40:10.978Z,1.77
2019-05-18T14:42:40.245Z,1.80
2019-05-18T14:45:10.646Z,1.90
2019-05-18T14:47:39.930Z,2.10
2019-05-18T14:50:12.511Z,1.80
2019-05-18T14:52:41.863Z,1.80
2019-05-18T14:55:11.887Z,2.00
2019-05-18T14:57:41.162Z,3.60
2019-05-18T15:00:10.978Z,2.20
2019-05-18T15:02:40.243Z,2.20
2019-05-18T15:05:10.117Z,2.00
2019-05-18T15:07:39.383Z,2.10
2019-05-18T15:10:09.900Z,1.85
2019-05-18T15:12:39.182Z,1.80
2019-05-18T15:15:09.182Z,1.70
2019-05-18T15:17:38.512Z,1.90
2019-05-18T15:20:08.544Z,2.30
2019-05-18T15:22:37.907Z,2.08
2019-05-18T15:25:07.441Z,2.20
2019-05-18T15:27:37.003Z,2.00
2019-05-18T15:30:09.795Z,1.95
2019-05-18T15:32:39.402Z,2.27
2019-05-18T15:35:09.465Z,2.17
2019-05-18T15:37:43.244Z,3.10
2019-05-18T15:40:12.125Z,3.80
2019-05-18T15:42:41.480Z,2.27
2019-05-18T15:45:11.331Z,2.15
2019-05-18T15:47:40.598Z,3.20
2019-05-18T15:50:11.945Z,3.05
2019-05-18T15:52:42.834Z,2.62
2019-05-18T15:55:13.051Z,2.50
2019-05-18T15:57:42.311Z,2.12
2019-05-18T16:00:12.151Z,2.52
2019-05-18T16:02:41.491Z,2.52
2019-05-18T16:05:11.488Z,2.27
2019-05-18T16:07:40.908Z,2.60
2019-05-18T16:10:12.891Z,2.58
2019-05-18T16:12:42.162Z,2.47
2019-05-18T16:15:13.083Z,2.52
2019-05-18T16:17:43.733Z,2.45
2019-05-18T16:20:13.626Z,2.42
2019-05-18T16:22:44.482Z,2.40
2019-05-18T16:25:14.887Z,2.98
2019-05-18T16:27:44.170Z,2.50
2019-05-18T16:30:13.879Z,2.75
2019-05-18T16:32:43.148Z,2.60
2019-05-18T16:35:12.854Z,2.75
2019-05-18T16:37:42.444Z,2.50
2019-05-18T16:40:12.250Z,2.58
2019-05-18T16:42:41.773Z,2.33
2019-05-18T16:45:11.713Z,2.55
2019-05-18T16:47:40.968Z,2.37
2019-05-18T16:50:11.377Z,2.83
2019-05-18T16:52:40.917Z,2.55
2019-05-18T16:55:11.041Z,2.92
2019-05-18T16:57:40.303Z,2.95
2019-05-18T17:00:15.748Z,2.92
2019-05-18T17:02:42.868Z,3.58
2019-05-18T17:05:13.949Z,4.55
2019-05-18T17:07:43.217Z,16.57
2019-05-18T17:10:13.133Z,38.38
2019-05-18T17:12:42.407Z,48.28
2019-05-18T17:15:12.928Z,74.03
2019-05-18T17:17:42.545Z,204.60
2019-05-18T17:20:12.362Z,69.40
2019-05-18T17:22:41.650Z,7.20
2019-05-18T17:25:11.243Z,17.00
2019-05-18T17:27:40.519Z,6.80
2019-05-18T17:30:10.921Z,4.80
2019-05-18T17:32:40.959Z,4.40
2019-05-18T17:35:10.776Z,3.30
2019-05-18T17:37:40.049Z,3.00
2019-05-18T17:40:09.931Z,3.30
2019-05-18T17:42:39.209Z,3.83
2019-05-18T17:45:08.752Z,4.08
2019-05-18T17:47:39.109Z,3.47
2019-05-18T17:50:09.507Z,4.87
2019-05-18T17:52:38.818Z,4.40
2019-05-18T17:55:09.222Z,4.22
2019-05-18T17:57:38.495Z,4.10
2019-05-18T18:00:09.381Z,3.65
2019-05-18T18:02:39.991Z,3.45
2019-05-18T18:05:09.892Z,3.35
2019-05-18T18:07:39.331Z,3.00
2019-05-18T18:10:09.186Z,5.10
2019-05-18T18:12:38.447Z,3.75
2019-05-18T18:15:09.526Z,3.10
2019-05-18T18:17:39.299Z,3.05
2019-05-18T18:20:08.899Z,2.90
2019-05-18T18:22:38.441Z,2.33
2019-05-18T18:25:08.339Z,2.70
2019-05-18T18:27:37.611Z,3.67
2019-05-18T18:30:08.607Z,3.47
2019-05-18T18:32:37.890Z,3.30
2019-05-18T18:35:07.600Z,3.22
2019-05-18T18:37:36.863Z,2.70
2019-05-18T18:40:08.203Z,2.20
2019-05-18T18:42:37.654Z,1.90
2019-05-18T18:45:07.847Z,1.90
2019-05-18T18:47:37.472Z,1.55
2019-05-18T18:50:08.082Z,1.70
2019-05-18T18:52:37.613Z,1.82
2019-05-18T18:55:07.728Z,1.90
2019-05-18T18:57:41.425Z,1.70
2019-05-18T19:00:08.703Z,1.77
2019-05-18T19:02:38.015Z,1.67
2019-05-18T19:05:09.079Z,2.00
2019-05-18T19:07:38.346Z,2.00
2019-05-18T19:10:07.947Z,2.05
2019-05-18T19:12:37.879Z,2.00
2019-05-18T19:15:08.090Z,2.30
2019-05-18T19:17:37.623Z,2.08
2019-05-18T19:20:07.633Z,2.30
2019-05-18T19:22:36.970Z,2.00
2019-05-18T19:25:06.777Z,2.33
2019-05-18T19:27:37.017Z,2.40
2019-05-18T19:30:09.898Z,2.47
2019-05-18T19:32:39.798Z,2.22
2019-05-18T19:35:09.235Z,2.52
2019-05-18T19:37:38.604Z,2.30
2019-05-18T19:40:08.767Z,2.22
2019-05-18T19:42:39.179Z,2.20
2019-05-18T19:45:11.174Z,2.02
2019-05-18T19:47:41.079Z,2.45
2019-05-18T19:50:11.087Z,2.45
2019-05-18T19:52:40.367Z,2.47
2019-05-18T19:55:10.097Z,2.22
2019-05-18T19:57:39.352Z,2.58
2019-05-18T20:00:09.548Z,3.00
2019-05-18T20:02:39.095Z,3.12
2019-05-18T20:05:09.561Z,2.87
2019-05-18T20:07:39.049Z,3.10
2019-05-18T20:10:09.079Z,2.98
2019-05-18T20:12:39.743Z,3.50
2019-05-18T20:15:10.123Z,3.08
2019-05-18T20:17:39.465Z,3.25
2019-05-18T20:20:10.620Z,2.67
2019-05-18T20:22:40.230Z,2.30
2019-05-18T20:25:11.204Z,3.30
2019-05-18T20:27:40.612Z,3.40
2019-05-18T20:30:11.391Z,4.40
2019-05-18T20:32:40.905Z,4.80
2019-05-18T20:35:10.613Z,3.92
2019-05-18T20:37:40.129Z,3.87
2019-05-18T20:40:10.235Z,3.52
2019-05-18T20:42:39.763Z,3.67
2019-05-18T20:45:09.877Z,3.50
2019-05-18T20:47:39.136Z,3.90
2019-05-18T20:50:08.846Z,4.60
2019-05-18T20:52:38.135Z,4.05
2019-05-18T20:55:07.659Z,3.60
2019-05-18T20:57:36.930Z,3.58
2019-05-18T21:00:07.242Z,4.12
2019-05-18T21:02:38.136Z,4.80
2019-05-18T21:05:08.137Z,4.60
2019-05-18T21:07:37.428Z,5.85
2019-05-18T21:10:07.539Z,4.90
2019-05-18T21:12:36.879Z,5.65
2019-05-18T21:15:10.004Z,5.08
2019-05-18T21:17:39.949Z,6.05
2019-05-18T21:20:09.909Z,5.40
2019-05-18T21:22:39.243Z,5.00
2019-05-18T21:25:10.183Z,6.70
2019-05-18T21:27:39.483Z,6.83
2019-05-18T21:30:09.119Z,7.35
2019-05-18T21:32:38.396Z,7.33
2019-05-18T21:35:08.102Z,6.15
2019-05-18T21:37:37.382Z,5.70
2019-05-18T21:40:07.528Z,5.70
2019-05-18T21:42:36.841Z,4.78
2019-05-18T21:45:08.191Z,5.20
2019-05-18T21:47:37.531Z,5.92
2019-05-18T21:50:07.336Z,5.75
2019-05-18T21:52:36.785Z,6.90
2019-05-18T21:55:07.090Z,6.33
2019-05-18T21:57:36.348Z,5.70
2019-05-18T22:00:08.431Z,6.30
2019-05-18T22:02:39.984Z,5.47
2019-05-18T22:05:09.395Z,5.53
2019-05-18T22:07:38.667Z,5.25
2019-05-18T22:10:24.391Z,5.45
2019-05-18T22:12:40.130Z,4.80
2019-05-18T22:15:09.835Z,5.08
2019-05-18T22:17:46.812Z,5.42
2019-05-18T22:20:17.255Z,5.45
2019-05-18T22:22:46.601Z,4.97
2019-05-18T22:25:15.847Z,5.55
2019-05-18T22:27:45.463Z,5.00
2019-05-18T22:30:14.722Z,4.55
2019-05-18T22:32:44.003Z,5.65
2019-05-18T22:35:13.279Z,5.15
2019-05-18T22:37:42.552Z,6.05
2019-05-18T22:40:11.887Z,5.72
2019-05-18T22:42:41.159Z,6.08
2019-05-18T22:45:10.559Z,6.17
2019-05-18T22:47:39.827Z,6.50
2019-05-18T22:50:09.441Z,5.85
2019-05-18T22:52:38.719Z,6.35
2019-05-18T22:55:08.054Z,6.78
2019-05-18T22:57:37.391Z,6.80
2019-05-18T23:00:07.236Z,7.67
2019-05-18T23:02:38.124Z,7.47
2019-05-18T23:05:07.733Z,6.40
2019-05-18T23:07:38.083Z,6.92
2019-05-18T23:10:07.594Z,8.25
2019-05-18T23:12:36.861Z,7.35
2019-05-18T23:15:07.863Z,7.70
2019-05-18T23:17:38.200Z,7.45
2019-05-18T23:20:07.702Z,7.33
2019-05-18T23:22:36.963Z,8.23
2019-05-18T23:25:07.383Z,7.95
2019-05-18T23:27:36.643Z,7.72
2019-05-18T23:30:07.660Z,7.45
2019-05-18T23:32:36.935Z,7.17
2019-05-18T23:35:06.758Z,8.05
2019-05-18T23:37:36.080Z,8.13
2019-05-18T23:40:08.452Z,9.43
2019-05-18T23:42:37.718Z,10.58
2019-05-18T23:45:07.427Z,8.85
2019-05-18T23:47:36.698Z,8.33
2019-05-18T23:50:07.116Z,9.48
2019-05-18T23:52:36.379Z,9.38
2019-05-18T23:55:07.287Z,9.70
2019-05-18T23:57:36.555Z,8.15
